HISTORICAL SENSOR DATA

Sensor Data Report

DB LIVE
CURRENT TIME--:--:--
DEVICE NETWORK Gateway Status
13 ESP · realtime ~1s · history 60s
Weather WS-MOD-01
OFFLINE
Actuator ACT-MOD-01
OFFLINE
Mainboard L3 MB-L3-01
ONLINE
Mainboard L5 MB-L5-01
OFFLINE
Remote AC AC-REMOTE-01
OFFLINE
PZEM L3-01 PWR-L3-01
OFFLINE
PZEM L3-02 PWR-L3-02
OFFLINE
PZEM L3-03 PWR-L3-03
OFFLINE
PZEM L3-04 PWR-L3-04
OFFLINE
PZEM L5-01 PWR-L5-01
OFFLINE
PZEM L5-02 PWR-L5-02
OFFLINE
PZEM L5-03 PWR-L5-03
OFFLINE
PZEM L5-04 PWR-L5-04
OFFLINE
REPORT FILTER

Periode & Sensor

DATABASE HISTORY
RESET
QUICK RANGE Hari ini 7 hari 30 hari
PERIODE31 Aug 2026sampai 06 Sep 2026
TOTAL DATA50,461sensor readings
MINIMUM-0.50sesuai filter
AVERAGE95.43sesuai filter
MAXIMUM32,564.20sesuai filter
REPORT RESULT

Data Sensor

31/08/2026 — 06/09/2026 EXPORT CSV
NOTANGGALWAKTUDEVICECHANNELSENSORVALUEUNIT
2501 06/09/2026 18:13:00 MB-L3-01Mainboard Lantai 3 L3-LUX-01 Illuminance / LUX 1 504.20 lux
2502 06/09/2026 18:13:00 MB-L3-01Mainboard Lantai 3 L3-AI-02 Analog Input 2 3.12 V
2503 06/09/2026 18:13:00 MB-L3-01Mainboard Lantai 3 L3-RAD-01 Radiation 1 1.00 W/m²
2504 06/09/2026 18:13:00 MB-L3-01Mainboard Lantai 3 L3-LUX-05 Illuminance / LUX 5 391.90 lux
2505 06/09/2026 18:13:00 MB-L3-01Mainboard Lantai 3 L3-SHT-02-RH SHT20 2 Humidity 41.50 %RH
2506 06/09/2026 18:13:00 MB-L3-01Mainboard Lantai 3 L3-LUX-06 Illuminance / LUX 6 541.40 lux
2507 06/09/2026 18:13:00 MB-L3-01Mainboard Lantai 3 L3-AI-05 Analog Input 5 3.12 V
2508 06/09/2026 18:13:00 MB-L3-01Mainboard Lantai 3 L3-AI-01 Analog Input 1 3.12 V
2509 06/09/2026 18:13:00 MB-L3-01Mainboard Lantai 3 L3-AI-04 Analog Input 4 3.12 V
2510 06/09/2026 18:13:00 MB-L3-01Mainboard Lantai 3 L3-SHT-02-T SHT20 2 Temperature 29.90 °C
2511 06/09/2026 18:13:00 MB-L3-01Mainboard Lantai 3 L3-LUX-04 Illuminance / LUX 4 587.60 lux
2512 06/09/2026 18:13:00 MB-L3-01Mainboard Lantai 3 L3-LUX-02 Illuminance / LUX 2 617.00 lux
2513 06/09/2026 18:12:00 MB-L3-01Mainboard Lantai 3 L3-SHT-01-RH SHT20 1 Humidity 42.10 %RH
2514 06/09/2026 18:12:00 MB-L3-01Mainboard Lantai 3 L3-SHT-03-T SHT20 3 Temperature 29.90 °C
2515 06/09/2026 18:12:00 MB-L3-01Mainboard Lantai 3 L3-RAD-02 Radiation 2 1.00 W/m²
2516 06/09/2026 18:12:00 MB-L3-01Mainboard Lantai 3 L3-LUX-01 Illuminance / LUX 1 504.50 lux
2517 06/09/2026 18:12:00 MB-L3-01Mainboard Lantai 3 L3-AI-02 Analog Input 2 3.12 V
2518 06/09/2026 18:12:00 MB-L3-01Mainboard Lantai 3 L3-RAD-01 Radiation 1 1.00 W/m²
2519 06/09/2026 18:12:00 MB-L3-01Mainboard Lantai 3 L3-LUX-05 Illuminance / LUX 5 392.10 lux
2520 06/09/2026 18:12:00 MB-L3-01Mainboard Lantai 3 L3-SHT-02-RH SHT20 2 Humidity 41.50 %RH
2521 06/09/2026 18:12:00 MB-L3-01Mainboard Lantai 3 L3-LUX-06 Illuminance / LUX 6 540.00 lux
2522 06/09/2026 18:12:00 MB-L3-01Mainboard Lantai 3 L3-AI-05 Analog Input 5 3.12 V
2523 06/09/2026 18:12:00 MB-L3-01Mainboard Lantai 3 L3-AI-01 Analog Input 1 3.12 V
2524 06/09/2026 18:12:00 MB-L3-01Mainboard Lantai 3 L3-AI-04 Analog Input 4 3.12 V
2525 06/09/2026 18:12:00 MB-L3-01Mainboard Lantai 3 L3-SHT-02-T SHT20 2 Temperature 30.00 °C
2526 06/09/2026 18:12:00 MB-L3-01Mainboard Lantai 3 L3-LUX-04 Illuminance / LUX 4 587.90 lux
2527 06/09/2026 18:12:00 MB-L3-01Mainboard Lantai 3 L3-LUX-02 Illuminance / LUX 2 616.40 lux
2528 06/09/2026 18:12:00 MB-L3-01Mainboard Lantai 3 L3-AI-03 Analog Input 3 3.12 V
2529 06/09/2026 18:12:00 MB-L3-01Mainboard Lantai 3 L3-SHT-03-RH SHT20 3 Humidity 41.70 %RH
2530 06/09/2026 18:12:00 MB-L3-01Mainboard Lantai 3 L3-LUX-03 Illuminance / LUX 3 736.00 lux
2531 06/09/2026 18:12:00 MB-L3-01Mainboard Lantai 3 L3-AI-06 Analog Input 6 3.12 V
2532 06/09/2026 18:12:00 MB-L3-01Mainboard Lantai 3 L3-SHT-01-T SHT20 1 Temperature 29.70 °C
2533 06/09/2026 18:11:00 MB-L3-01Mainboard Lantai 3 L3-LUX-06 Illuminance / LUX 6 541.90 lux
2534 06/09/2026 18:11:00 MB-L3-01Mainboard Lantai 3 L3-AI-05 Analog Input 5 3.12 V
2535 06/09/2026 18:11:00 MB-L3-01Mainboard Lantai 3 L3-AI-01 Analog Input 1 3.12 V
2536 06/09/2026 18:11:00 MB-L3-01Mainboard Lantai 3 L3-AI-04 Analog Input 4 3.12 V
2537 06/09/2026 18:11:00 MB-L3-01Mainboard Lantai 3 L3-SHT-02-T SHT20 2 Temperature 29.90 °C
2538 06/09/2026 18:11:00 MB-L3-01Mainboard Lantai 3 L3-LUX-04 Illuminance / LUX 4 588.20 lux
2539 06/09/2026 18:11:00 MB-L3-01Mainboard Lantai 3 L3-LUX-02 Illuminance / LUX 2 617.70 lux
2540 06/09/2026 18:11:00 MB-L3-01Mainboard Lantai 3 L3-AI-03 Analog Input 3 3.12 V
2541 06/09/2026 18:11:00 MB-L3-01Mainboard Lantai 3 L3-SHT-03-RH SHT20 3 Humidity 41.70 %RH
2542 06/09/2026 18:11:00 MB-L3-01Mainboard Lantai 3 L3-LUX-03 Illuminance / LUX 3 736.50 lux
2543 06/09/2026 18:11:00 MB-L3-01Mainboard Lantai 3 L3-AI-06 Analog Input 6 3.12 V
2544 06/09/2026 18:11:00 MB-L3-01Mainboard Lantai 3 L3-SHT-01-T SHT20 1 Temperature 29.70 °C
2545 06/09/2026 18:11:00 MB-L3-01Mainboard Lantai 3 L3-SHT-01-RH SHT20 1 Humidity 42.00 %RH
2546 06/09/2026 18:11:00 MB-L3-01Mainboard Lantai 3 L3-SHT-03-T SHT20 3 Temperature 29.90 °C
2547 06/09/2026 18:11:00 MB-L3-01Mainboard Lantai 3 L3-RAD-02 Radiation 2 1.00 W/m²
2548 06/09/2026 18:11:00 MB-L3-01Mainboard Lantai 3 L3-LUX-01 Illuminance / LUX 1 504.50 lux
2549 06/09/2026 18:11:00 MB-L3-01Mainboard Lantai 3 L3-AI-02 Analog Input 2 3.12 V
2550 06/09/2026 18:11:00 MB-L3-01Mainboard Lantai 3 L3-RAD-01 Radiation 1 1.00 W/m²
2551 06/09/2026 18:11:00 MB-L3-01Mainboard Lantai 3 L3-LUX-05 Illuminance / LUX 5 392.30 lux
2552 06/09/2026 18:11:00 MB-L3-01Mainboard Lantai 3 L3-SHT-02-RH SHT20 2 Humidity 41.40 %RH
2553 06/09/2026 18:10:00 MB-L3-01Mainboard Lantai 3 L3-AI-04 Analog Input 4 3.12 V
2554 06/09/2026 18:10:00 MB-L3-01Mainboard Lantai 3 L3-SHT-02-T SHT20 2 Temperature 30.00 °C
2555 06/09/2026 18:10:00 MB-L3-01Mainboard Lantai 3 L3-LUX-04 Illuminance / LUX 4 588.30 lux
2556 06/09/2026 18:10:00 MB-L3-01Mainboard Lantai 3 L3-LUX-02 Illuminance / LUX 2 617.30 lux
2557 06/09/2026 18:10:00 MB-L3-01Mainboard Lantai 3 L3-AI-03 Analog Input 3 3.12 V
2558 06/09/2026 18:10:00 MB-L3-01Mainboard Lantai 3 L3-SHT-03-RH SHT20 3 Humidity 41.70 %RH
2559 06/09/2026 18:10:00 MB-L3-01Mainboard Lantai 3 L3-LUX-03 Illuminance / LUX 3 736.60 lux
2560 06/09/2026 18:10:00 MB-L3-01Mainboard Lantai 3 L3-AI-06 Analog Input 6 3.12 V
2561 06/09/2026 18:10:00 MB-L3-01Mainboard Lantai 3 L3-SHT-01-T SHT20 1 Temperature 29.70 °C
2562 06/09/2026 18:10:00 MB-L3-01Mainboard Lantai 3 L3-SHT-01-RH SHT20 1 Humidity 41.80 %RH
2563 06/09/2026 18:10:00 MB-L3-01Mainboard Lantai 3 L3-SHT-03-T SHT20 3 Temperature 29.90 °C
2564 06/09/2026 18:10:00 MB-L3-01Mainboard Lantai 3 L3-RAD-02 Radiation 2 1.00 W/m²
2565 06/09/2026 18:10:00 MB-L3-01Mainboard Lantai 3 L3-LUX-01 Illuminance / LUX 1 504.80 lux
2566 06/09/2026 18:10:00 MB-L3-01Mainboard Lantai 3 L3-AI-02 Analog Input 2 3.12 V
2567 06/09/2026 18:10:00 MB-L3-01Mainboard Lantai 3 L3-RAD-01 Radiation 1 1.00 W/m²
2568 06/09/2026 18:10:00 MB-L3-01Mainboard Lantai 3 L3-LUX-05 Illuminance / LUX 5 392.70 lux
2569 06/09/2026 18:10:00 MB-L3-01Mainboard Lantai 3 L3-SHT-02-RH SHT20 2 Humidity 41.30 %RH
2570 06/09/2026 18:10:00 MB-L3-01Mainboard Lantai 3 L3-LUX-06 Illuminance / LUX 6 542.20 lux
2571 06/09/2026 18:10:00 MB-L3-01Mainboard Lantai 3 L3-AI-05 Analog Input 5 3.12 V
2572 06/09/2026 18:10:00 MB-L3-01Mainboard Lantai 3 L3-AI-01 Analog Input 1 3.12 V
2573 06/09/2026 18:09:00 MB-L3-01Mainboard Lantai 3 L3-LUX-02 Illuminance / LUX 2 616.90 lux
2574 06/09/2026 18:09:00 MB-L3-01Mainboard Lantai 3 L3-AI-03 Analog Input 3 3.12 V
2575 06/09/2026 18:09:00 MB-L3-01Mainboard Lantai 3 L3-SHT-03-RH SHT20 3 Humidity 41.70 %RH
2576 06/09/2026 18:09:00 MB-L3-01Mainboard Lantai 3 L3-LUX-03 Illuminance / LUX 3 737.40 lux
2577 06/09/2026 18:09:00 MB-L3-01Mainboard Lantai 3 L3-AI-06 Analog Input 6 3.12 V
2578 06/09/2026 18:09:00 MB-L3-01Mainboard Lantai 3 L3-SHT-01-T SHT20 1 Temperature 29.70 °C
2579 06/09/2026 18:09:00 MB-L3-01Mainboard Lantai 3 L3-SHT-01-RH SHT20 1 Humidity 41.90 %RH
2580 06/09/2026 18:09:00 MB-L3-01Mainboard Lantai 3 L3-SHT-03-T SHT20 3 Temperature 29.80 °C
2581 06/09/2026 18:09:00 MB-L3-01Mainboard Lantai 3 L3-RAD-02 Radiation 2 1.00 W/m²
2582 06/09/2026 18:09:00 MB-L3-01Mainboard Lantai 3 L3-LUX-01 Illuminance / LUX 1 505.00 lux
2583 06/09/2026 18:09:00 MB-L3-01Mainboard Lantai 3 L3-AI-02 Analog Input 2 3.12 V
2584 06/09/2026 18:09:00 MB-L3-01Mainboard Lantai 3 L3-RAD-01 Radiation 1 1.00 W/m²
2585 06/09/2026 18:09:00 MB-L3-01Mainboard Lantai 3 L3-LUX-05 Illuminance / LUX 5 392.80 lux
2586 06/09/2026 18:09:00 MB-L3-01Mainboard Lantai 3 L3-SHT-02-RH SHT20 2 Humidity 41.30 %RH
2587 06/09/2026 18:09:00 MB-L3-01Mainboard Lantai 3 L3-LUX-06 Illuminance / LUX 6 540.70 lux
2588 06/09/2026 18:09:00 MB-L3-01Mainboard Lantai 3 L3-AI-05 Analog Input 5 3.12 V
2589 06/09/2026 18:09:00 MB-L3-01Mainboard Lantai 3 L3-AI-01 Analog Input 1 3.12 V
2590 06/09/2026 18:09:00 MB-L3-01Mainboard Lantai 3 L3-AI-04 Analog Input 4 3.12 V
2591 06/09/2026 18:09:00 MB-L3-01Mainboard Lantai 3 L3-SHT-02-T SHT20 2 Temperature 29.80 °C
2592 06/09/2026 18:09:00 MB-L3-01Mainboard Lantai 3 L3-LUX-04 Illuminance / LUX 4 588.50 lux
2593 06/09/2026 18:08:00 MB-L3-01Mainboard Lantai 3 L3-AI-06 Analog Input 6 3.12 V
2594 06/09/2026 18:08:00 MB-L3-01Mainboard Lantai 3 L3-SHT-01-T SHT20 1 Temperature 29.60 °C
2595 06/09/2026 18:08:00 MB-L3-01Mainboard Lantai 3 L3-SHT-01-RH SHT20 1 Humidity 41.80 %RH
2596 06/09/2026 18:08:00 MB-L3-01Mainboard Lantai 3 L3-SHT-03-T SHT20 3 Temperature 29.90 °C
2597 06/09/2026 18:08:00 MB-L3-01Mainboard Lantai 3 L3-RAD-02 Radiation 2 1.00 W/m²
2598 06/09/2026 18:08:00 MB-L3-01Mainboard Lantai 3 L3-LUX-01 Illuminance / LUX 1 505.40 lux
2599 06/09/2026 18:08:00 MB-L3-01Mainboard Lantai 3 L3-AI-02 Analog Input 2 3.12 V
2600 06/09/2026 18:08:00 MB-L3-01Mainboard Lantai 3 L3-RAD-01 Radiation 1 1.00 W/m²
Menampilkan maksimal 100 data per halaman